Time;durP1;ratioP1;P1;durP2;ratioP2;P2;SDS_P1;SDS_P2;PMS_P1;PMS_P2;Temp;Humidity;BMP_temperature;BMP_pressure;BME280_temperature;BME280_humidity;BME280_pressure;Samples;Min_cycle;Max_cycle;Signal;HPM_P1;HPM_P2
2022/08/27 10:28:30;;;;;;;36.83;6.20;;;;;;;31.02;42.04;99684.81;5087636;27;20530;-82
2022/08/27 10:31:17;;;;;;;37.03;6.60;;;;;;;31.20;40.81;99689.66;5087955;28;20209;-78
2022/08/27 10:33:58;;;;;;;29.00;5.82;;;;;;;31.33;40.63;99673.47;5100494;28;20197;-79
2022/08/27 10:36:37;;;;;;;17.77;5.43;;;;;;;31.64;37.87;99688.09;5086628;28;20201;-82
2022/08/27 10:39:17;;;;;;;30.75;4.90;;;;;;;31.84;38.29;99674.81;5084512;28;20206;-75
2022/08/27 10:41:51;;;;;;;19.23;4.43;;;;;;;31.99;37.45;99687.97;5085209;28;20200;-77
2022/08/27 10:44:46;;;;;;;14.88;4.50;;;;;;;32.07;35.42;99681.03;5042796;28;20207;-87
2022/08/27 10:47:23;;;;;;;28.83;10.98;;;;;;;32.17;35.68;99673.13;5037856;28;20262;-82
2022/08/27 10:49:57;;;;;;;29.60;10.50;;;;;;;31.93;36.39;99657.97;4995695;28;20330;-81
2022/08/27 10:52:32;;;;;;;27.38;5.88;;;;;;;32.04;35.79;99683.06;5061908;28;20287;-81
2022/08/27 10:55:03;;;;;;;28.55;5.22;;;;;;;32.13;36.41;99685.06;5057067;28;20212;-87
2022/08/27 10:57:43;;;;;;;22.65;4.70;;;;;;;32.43;36.44;99685.25;5049162;28;20698;-86
2022/08/27 11:00:17;;;;;;;24.08;6.15;;;;;;;32.60;37.45;99684.78;5055069;28;20207;-86
2022/08/27 11:02:50;;;;;;;30.10;7.68;;;;;;;32.65;37.93;99679.03;5044888;28;20211;-84
2022/08/27 11:05:20;;;;;;;34.75;7.40;;;;;;;32.61;38.46;99681.09;5055107;28;20207;-86
2022/08/27 11:07:53;;;;;;;38.75;8.23;;;;;;;32.59;39.18;99683.06;5044700;28;20226;-84
2022/08/27 11:10:24;;;;;;;31.27;7.25;;;;;;;32.65;39.19;99671.81;5044814;28;20213;-83
2022/08/27 11:12:55;;;;;;;43.28;6.75;;;;;;;32.56;40.37;99675.25;5042501;28;20227;-89
2022/08/27 11:15:28;;;;;;;42.30;7.43;;;;;;;32.66;40.96;99678.91;5029140;28;20260;-84
2022/08/27 11:18:03;;;;;;;43.63;7.60;;;;;;;32.77;39.55;99683.38;5036817;28;20626;-85
2022/08/27 11:20:34;;;;;;;31.50;7.00;;;;;;;32.77;38.48;99673.50;5032080;28;20217;-86
2022/08/27 11:23:06;;;;;;;28.50;5.88;;;;;;;32.86;39.16;99672.72;5026984;28;20203;-86
2022/08/27 11:25:45;;;;;;;32.97;6.05;;;;;;;32.96;38.72;99658.53;5082936;28;20763;-89
2022/08/27 11:28:14;;;;;;;55.35;7.95;;;;;;;33.09;38.28;99683.38;5085802;28;20224;-86
2022/08/27 11:30:55;;;;;;;50.40;7.55;;;;;;;32.97;38.99;99681.72;5078528;28;20202;-88
2022/08/27 11:33:29;;;;;;;27.98;6.32;;;;;;;32.72;40.48;99675.69;5072508;28;20206;-82
2022/08/27 11:36:24;;;;;;;46.15;8.05;;;;;;;33.00;38.44;99676.94;5075101;28;20210;-83
2022/08/27 11:38:57;;;;;;;33.33;7.20;;;;;;;32.96;38.66;99653.16;5068031;28;20199;-90
2022/08/27 11:41:49;;;;;;;35.50;6.63;;;;;;;33.09;38.11;99664.56;5062543;28;20198;-81
2022/08/27 11:44:17;;;;;;;37.03;6.82;;;;;;;33.30;38.30;99662.78;5035229;28;20203;-85
2022/08/27 11:46:48;;;;;;;41.10;6.97;;;;;;;33.19;38.42;99663.69;5075852;28;20645;-87
2022/08/27 11:49:26;;;;;;;39.47;6.90;;;;;;;33.19;39.28;99662.84;5081125;28;20210;-87
2022/08/27 11:51:59;;;;;;;46.97;7.80;;;;;;;33.25;38.46;99665.00;5067177;28;20201;-83
2022/08/27 11:54:30;;;;;;;39.63;7.00;;;;;;;33.13;37.62;99664.22;5078610;28;20209;-82
2022/08/27 11:56:57;;;;;;;45.55;7.82;;;;;;;33.48;38.06;99661.19;5074590;28;20198;-81
2022/08/27 11:59:30;;;;;;;24.15;6.15;;;;;;;33.34;37.17;99629.28;5032809;28;20201;-79
2022/08/27 12:02:24;;;;;;;28.42;7.07;;;;;;;33.54;36.87;99644.53;5052455;28;20202;-79
2022/08/27 12:04:54;;;;;;;30.20;7.10;;;;;;;33.59;37.06;99655.75;5055826;28;20747;-78
2022/08/27 12:07:33;;;;;;;36.55;7.80;;;;;;;33.01;37.73;99622.22;5054354;28;20218;-78
2022/08/27 12:10:18;;;;;;;41.67;6.88;;;;;;;33.27;37.49;99655.84;5052711;28;20268;-80
2022/08/27 12:12:56;;;;;;;27.50;7.18;;;;;;;33.04;37.65;99650.66;5060584;28;20211;-80
2022/08/27 12:15:30;;;;;;;38.20;6.20;;;;;;;33.34;37.85;99653.47;5049935;28;20211;-81
2022/08/27 12:18:07;;;;;;;43.35;7.97;;;;;;;33.25;37.78;99622.84;5033192;28;20209;-81
2022/08/27 12:20:46;;;;;;;31.40;6.32;;;;;;;33.35;38.34;99645.28;5062579;28;20201;-77
2022/08/27 12:23:42;;;;;;;36.65;6.85;;;;;;;33.20;38.01;99648.41;5060015;28;20207;-85
2022/08/27 12:26:27;;;;;;;38.92;6.60;;;;;;;33.23;38.16;99645.47;5064224;28;20244;-88
2022/08/27 12:29:16;;;;;;;57.90;21.10;;;;;;;33.30;37.58;99641.25;5068066;28;20202;-81
2022/08/27 12:31:47;;;;;;;35.75;7.18;;;;;;;33.44;38.32;99638.25;5050036;28;20229;-75
2022/08/27 12:34:20;;;;;;;32.92;8.02;;;;;;;33.49;37.40;99641.41;5051964;28;20296;-76
2022/08/27 12:36:49;;;;;;;40.72;5.60;;;;;;;33.62;37.45;99641.16;5055898;28;20686;-78
2022/08/27 12:39:19;;;;;;;32.33;6.43;;;;;;;33.77;38.72;99637.19;5068212;28;20190;-78
2022/08/27 12:41:48;;;;;;;26.90;9.02;;;;;;;33.75;39.24;99625.69;5062372;28;20207;-78
2022/08/27 12:44:24;;;;;;;33.03;7.43;;;;;;;33.92;37.04;99626.91;5052106;28;20659;-81
2022/08/27 12:46:54;;;;;;;35.47;7.00;;;;;;;33.90;36.79;99629.72;5079423;28;20320;-84
2022/08/27 12:49:30;;;;;;;31.45;6.72;;;;;;;33.86;37.30;99613.00;5074347;28;20198;-86
2022/08/27 12:52:03;;;;;;;40.75;6.82;;;;;;;34.01;36.21;99626.91;5080646;28;20220;-82
2022/08/27 12:54:43;;;;;;;27.10;6.75;;;;;;;34.18;36.29;99633.50;5066984;28;20206;-83
2022/08/27 12:57:22;;;;;;;29.58;5.28;;;;;;;34.34;35.09;99623.94;5071844;28;20213;-84
2022/08/27 13:00:03;;;;;;;32.53;6.00;;;;;;;34.57;35.65;99624.50;5075992;28;20201;-87
2022/08/27 13:02:53;;;;;;;33.08;5.85;;;;;;;34.27;34.36;99601.25;5077779;28;20202;-85
2022/08/27 13:05:23;;;;;;;33.15;7.28;;;;;;;34.59;35.74;99630.63;5047263;28;20209;-85
2022/08/27 13:07:52;;;;;;;40.92;6.30;;;;;;;34.52;35.32;99616.00;5061367;28;20231;-84
2022/08/27 13:10:24;;;;;;;42.55;7.30;;;;;;;34.32;36.14;99622.34;5076212;28;20205;-82
2022/08/27 13:13:03;;;;;;;123.32;54.85;;;;;;;34.41;35.72;99632.31;5075282;28;20190;-82
2022/08/27 13:15:30;;;;;;;31.23;6.18;;;;;;;34.18;36.08;99601.22;5071128;28;20202;-84
2022/08/27 13:17:57;;;;;;;44.67;6.53;;;;;;;34.22;36.24;99614.25;5080522;28;20202;-82
2022/08/27 13:20:26;;;;;;;35.00;5.90;;;;;;;34.10;35.35;99614.50;5071432;28;20201;-82
2022/08/27 13:22:54;;;;;;;43.25;6.72;;;;;;;33.68;36.46;99558.13;5071106;28;20642;-81
2022/08/27 13:25:24;;;;;;;54.63;7.70;;;;;;;34.10;35.93;99601.03;5070780;28;20206;-81
2022/08/27 13:27:54;;;;;;;42.53;6.20;;;;;;;34.17;36.22;99610.28;5070554;28;20234;-81
2022/08/27 13:30:22;;;;;;;39.92;9.00;;;;;;;34.40;37.02;99627.03;5070042;28;20206;-82
2022/08/27 13:32:50;;;;;;;36.08;6.95;;;;;;;34.42;36.37;99593.63;5068449;28;20202;-85
2022/08/27 13:35:17;;;;;;;20.83;5.47;;;;;;;34.17;35.91;99626.44;5050426;28;20689;-83
2022/08/27 13:37:49;;;;;;;42.30;6.80;;;;;;;34.23;36.24;99593.56;5051009;28;20689;-79
2022/08/27 13:40:29;;;;;;;36.08;5.32;;;;;;;34.22;36.31;99598.09;5035696;28;20594;-78
2022/08/27 13:43:02;;;;;;;38.22;6.38;;;;;;;34.27;35.67;99601.25;5050589;28;20206;-82
2022/08/27 13:45:29;;;;;;;53.00;7.45;;;;;;;34.27;36.46;99608.47;5073372;28;20197;-86
2022/08/27 13:47:56;;;;;;;41.30;7.97;;;;;;;34.46;35.52;99635.41;5078767;28;21576;-85
2022/08/27 13:50:25;;;;;;;36.08;6.03;;;;;;;34.44;36.03;99628.47;5073185;28;20210;-83
2022/08/27 13:55:49;;;;;;;32.28;6.50;;;;;;;34.39;35.31;99609.19;5064812;28;20214;-87
2022/08/27 13:58:23;;;;;;;29.08;6.03;;;;;;;34.45;35.74;99619.41;5063739;28;20222;-89
2022/08/27 14:00:51;;;;;;;42.20;6.65;;;;;;;34.39;36.02;99607.34;5059106;28;20193;-86
2022/08/27 14:03:30;;;;;;;37.03;6.13;;;;;;;34.40;36.29;99606.34;5058583;28;20682;-82
2022/08/27 14:05:57;;;;;;;32.03;6.10;;;;;;;34.36;35.68;99602.22;5061376;28;20202;-79
2022/08/27 14:08:29;;;;;;;25.83;5.68;;;;;;;34.28;35.62;99608.31;5061531;28;20694;-83
2022/08/27 14:11:01;;;;;;;31.45;6.28;;;;;;;34.14;36.15;99610.56;5014505;28;20214;-84
2022/08/27 14:13:30;;;;;;;27.52;5.75;;;;;;;34.29;34.84;99609.16;5050079;28;20218;-81
2022/08/27 14:15:58;;;;;;;40.00;7.50;;;;;;;34.35;34.67;99608.63;5059332;28;20251;-78
2022/08/27 14:18:27;;;;;;;29.33;5.82;;;;;;;34.10;34.55;99582.19;5072254;28;20685;-79
2022/08/27 14:20:55;;;;;;;40.38;6.18;;;;;;;34.11;35.24;99606.25;5059438;28;20202;-84
2022/08/27 14:23:22;;;;;;;37.10;5.38;;;;;;;34.09;35.25;99607.41;5053700;28;20194;-82
2022/08/27 14:25:52;;;;;;;36.38;5.63;;;;;;;34.04;36.08;99601.56;5053237;28;20211;-81
2022/08/27 14:28:19;;;;;;;35.63;5.70;;;;;;;34.36;36.24;99611.16;5050423;28;20218;-79
2022/08/27 14:30:47;;;;;;;45.65;6.82;;;;;;;34.45;35.82;99597.88;5057539;28;20658;-81
2022/08/27 14:33:14;;;;;;;35.03;5.85;;;;;;;34.40;35.58;99587.50;5065612;28;20202;-82
2022/08/27 14:35:42;;;;;;;35.05;5.35;;;;;;;34.63;35.21;99618.63;5055002;28;20209;-80
2022/08/27 14:38:13;;;;;;;36.05;5.97;;;;;;;34.70;35.06;99616.19;5050107;28;20252;-81
2022/08/27 14:40:40;;;;;;;27.17;6.22;;;;;;;34.56;35.05;99617.44;5049513;28;20646;-81
2022/08/27 14:43:09;;;;;;;54.83;8.75;;;;;;;34.64;34.76;99622.97;5054755;28;20202;-80
2022/08/27 14:45:38;;;;;;;39.85;6.93;;;;;;;34.68;34.27;99615.47;5070381;28;20206;-79
2022/08/27 14:48:06;;;;;;;29.08;5.82;;;;;;;34.54;34.05;99587.09;5069599;28;20249;-79
2022/08/27 14:50:33;;;;;;;25.85;5.75;;;;;;;34.80;34.24;99623.28;5069853;28;20206;-77
2022/08/27 14:53:00;;;;;;;28.83;5.78;;;;;;;34.74;34.27;99621.16;5076330;28;20197;-77
2022/08/27 14:55:29;;;;;;;36.85;5.90;;;;;;;34.48;33.95;99593.03;5078529;28;20554;-79
2022/08/27 14:57:56;;;;;;;37.67;5.85;;;;;;;34.33;34.68;99627.59;5064093;28;20280;-78
2022/08/27 15:00:24;;;;;;;34.17;6.15;;;;;;;34.28;34.16;99619.09;5056485;28;20203;-80
2022/08/27 15:02:51;;;;;;;29.13;5.85;;;;;;;34.43;34.02;99616.84;5049392;28;20201;-79
2022/08/27 15:05:19;;;;;;;29.02;4.82;;;;;;;33.80;34.55;99551.66;5063912;28;20211;-76
2022/08/27 15:07:46;;;;;;;26.58;6.32;;;;;;;34.23;34.14;99621.34;5064763;28;20226;-79
2022/08/27 15:10:13;;;;;;;25.85;5.70;;;;;;;34.50;34.50;99623.38;5060864;28;20202;-81
2022/08/27 15:12:40;;;;;;;26.38;4.90;;;;;;;34.59;33.72;99617.16;5050446;28;20194;-82
2022/08/27 15:15:09;;;;;;;24.48;5.40;;;;;;;34.57;33.93;99619.13;5055913;28;20214;-80
2022/08/27 15:17:38;;;;;;;27.13;4.93;;;;;;;34.81;33.08;99608.84;5055666;28;20199;-81
2022/08/27 15:20:08;;;;;;;34.05;5.05;;;;;;;35.59;32.46;99615.81;5053517;28;20199;-83
2022/08/27 15:22:38;;;;;;;23.80;4.78;;;;;;;36.31;31.72;99623.19;5052691;28;20214;-80
2022/08/27 15:25:06;;;;;;;25.50;4.93;;;;;;;36.67;31.02;99611.41;5065932;28;20206;-83
2022/08/27 15:27:34;;;;;;;33.65;5.15;;;;;;;36.99;30.61;99634.34;5061770;28;20226;-84
2022/08/27 15:30:01;;;;;;;27.88;5.07;;;;;;;37.15;29.45;99645.31;5053628;28;20199;-79
2022/08/27 15:32:31;;;;;;;18.35;4.88;;;;;;;36.78;29.94;99640.91;5052989;28;20195;-81
2022/08/27 15:35:03;;;;;;;31.25;5.43;;;;;;;36.41;30.06;99588.84;5053148;28;20222;-83
2022/08/27 15:37:30;;;;;;;27.88;4.93;;;;;;;36.74;30.64;99634.09;5052918;28;20202;-82
2022/08/27 15:39:57;;;;;;;32.10;5.50;;;;;;;37.25;30.14;99646.06;5053376;28;20202;-79
2022/08/27 15:42:24;;;;;;;33.47;4.80;;;;;;;37.44;28.79;99616.09;5052815;28;20203;-85
2022/08/27 15:44:54;;;;;;;26.38;5.03;;;;;;;37.35;29.52;99614.34;5058613;28;20206;-80
2022/08/27 15:47:21;;;;;;;23.90;4.38;;;;;;;37.66;28.97;99631.84;5074192;28;20213;-78
2022/08/27 15:49:48;;;;;;;15.95;4.15;;;;;;;36.86;28.50;99585.22;5038885;28;20694;-76
2022/08/27 15:52:19;;;;;;;25.92;4.90;;;;;;;37.41;29.03;99627.25;5034500;28;20211;-76
2022/08/27 15:54:47;;;;;;;24.05;5.00;;;;;;;37.08;29.07;99625.31;5069783;28;20218;-80
2022/08/27 15:57:15;;;;;;;16.65;4.50;;;;;;;36.92;29.02;99633.28;5072516;28;20202;-80
2022/08/27 15:59:43;;;;;;;63.97;38.60;;;;;;;36.67;30.65;99621.38;5073241;28;20670;-80
2022/08/27 16:02:15;;;;;;;19.88;4.47;;;;;;;36.45;29.86;99600.19;5072861;28;20271;-76
2022/08/27 16:04:43;;;;;;;16.77;4.88;;;;;;;36.51;30.25;99622.03;5058154;28;20202;-76
2022/08/27 16:07:10;;;;;;;25.60;5.35;;;;;;;36.15;30.73;99621.13;5072324;28;20217;-78
2022/08/27 16:09:38;;;;;;;20.80;8.27;;;;;;;36.07;31.09;99612.03;5072819;28;20222;-75
2022/08/27 16:12:06;;;;;;;20.63;5.05;;;;;;;35.82;31.58;99583.09;5072209;28;20259;-77
2022/08/27 16:14:33;;;;;;;25.75;5.72;;;;;;;35.97;32.35;99611.25;5072053;28;20206;-80
2022/08/27 16:17:00;;;;;;;16.50;5.85;;;;;;;35.70;32.84;99615.66;5071875;28;20651;-79
2022/08/27 16:19:27;;;;;;;23.15;5.32;;;;;;;35.54;33.22;99603.72;5060829;28;20236;-85
2022/08/27 16:21:53;;;;;;;17.98;4.78;;;;;;;35.12;33.53;99587.09;5064499;28;20224;-84
2022/08/27 16:24:21;;;;;;;16.20;4.85;;;;;;;34.75;34.36;99597.75;5071830;28;20209;-84
2022/08/27 16:26:49;;;;;;;21.38;5.35;;;;;;;34.42;34.90;99615.16;5071760;28;20229;-81
2022/08/27 16:29:16;;;;;;;25.13;4.65;;;;;;;33.83;35.63;99594.44;5058232;28;20228;-84
2022/08/27 16:31:44;;;;;;;29.08;5.07;;;;;;;33.61;36.01;99617.94;5072345;28;20206;-84
2022/08/27 16:34:18;;;;;;;14.77;5.35;;;;;;;33.14;36.88;99606.78;5053038;28;20619;-83
2022/08/27 16:36:45;;;;;;;27.20;5.40;;;;;;;32.91;37.39;99611.41;5072319;28;20219;-78
2022/08/27 16:39:12;;;;;;;25.40;5.13;;;;;;;32.74;37.68;99614.69;5072125;28;20202;-85
2022/08/27 16:41:40;;;;;;;22.17;5.10;;;;;;;32.44;38.46;99614.50;5072360;28;20202;-80
2022/08/27 16:44:08;;;;;;;21.83;5.75;;;;;;;32.19;39.09;99614.81;5058241;28;20211;-88
2022/08/27 16:46:35;;;;;;;19.45;5.10;;;;;;;31.87;39.62;99614.69;5071837;28;20202;-84
2022/08/27 16:51:46;;;;;;;15.73;4.72;;;;;;;31.30;40.38;99620.13;5071688;28;20209;-88
2022/08/27 16:54:16;;;;;;;24.48;5.50;;;;;;;31.06;41.60;99622.03;5071927;28;20212;-85
2022/08/27 16:56:43;;;;;;;17.13;4.72;;;;;;;30.72;41.44;99603.13;5071689;28;20698;-80
2022/08/27 16:59:12;;;;;;;30.88;5.93;;;;;;;30.60;42.47;99625.47;5071760;28;20210;-82
2022/08/27 17:01:40;;;;;;;23.33;5.90;;;;;;;30.37;42.47;99621.78;5071782;28;20225;-88
2022/08/27 17:04:08;;;;;;;20.90;5.70;;;;;;;30.14;42.71;99611.06;5072868;28;20255;-84
2022/08/27 17:06:36;;;;;;;22.92;5.85;;;;;;;30.08;43.03;99630.22;5071653;28;20293;-85
2022/08/27 17:09:04;;;;;;;19.50;5.85;;;;;;;29.94;43.05;99626.72;5072434;28;20241;-86
2022/08/27 17:11:32;;;;;;;27.20;6.20;;;;;;;29.40;42.92;99556.66;5073133;28;20209;-90
2022/08/27 17:14:02;;;;;;;24.08;4.70;;;;;;;29.78;42.97;99631.44;5041294;28;20207;-87
2022/08/27 17:16:33;;;;;;;22.70;5.10;;;;;;;29.60;43.09;99634.56;5073947;28;20210;-87
2022/08/27 17:19:03;;;;;;;18.95;4.95;;;;;;;29.50;43.53;99635.19;5072001;28;20202;-84
2022/08/27 17:21:31;;;;;;;33.33;5.28;;;;;;;29.41;43.45;99629.63;5071232;28;20201;-84
2022/08/27 17:24:01;;;;;;;27.40;4.82;;;;;;;29.41;43.69;99648.34;5071162;28;20677;-84
2022/08/27 17:26:29;;;;;;;20.45;5.28;;;;;;;29.17;43.78;99625.97;5070626;28;20773;-86
2022/08/27 17:28:56;;;;;;;20.20;4.68;;;;;;;29.09;43.87;99638.97;5071716;28;20226;-82
2022/08/27 17:31:28;;;;;;;69.40;38.55;;;;;;;29.03;45.11;99637.59;5071725;28;20198;-82
2022/08/27 17:33:57;;;;;;;59.10;27.73;;;;;;;29.14;45.09;99659.09;5081939;28;20205;-80
2022/08/27 17:36:25;;;;;;;23.45;9.27;;;;;;;29.03;44.85;99640.25;5074237;28;20201;-84
2022/08/27 17:38:52;;;;;;;36.53;6.25;;;;;;;29.07;44.79;99648.91;5073608;28;20210;-83
2022/08/27 17:41:30;;;;;;;22.65;5.45;;;;;;;28.94;44.38;99633.72;5070280;28;20214;-83
2022/08/27 17:43:59;;;;;;;32.72;7.18;;;;;;;29.00;44.82;99659.16;5059074;28;20291;-81
2022/08/27 17:46:27;;;;;;;25.73;5.20;;;;;;;28.90;44.69;99658.91;5068253;28;20207;-81
2022/08/27 17:48:56;;;;;;;20.80;5.28;;;;;;;28.98;44.74;99671.75;5070200;28;20233;-79
2022/08/27 17:51:23;;;;;;;14.95;4.97;;;;;;;28.93;44.75;99680.06;5070259;28;20211;-80
2022/08/27 17:53:52;;;;;;;22.55;4.80;;;;;;;28.81;44.60;99654.19;5070501;28;20228;-79
2022/08/27 17:56:21;;;;;;;18.45;4.88;;;;;;;28.56;45.00;99611.38;5071220;28;20696;-78
2022/08/27 17:58:49;;;;;;;18.27;4.57;;;;;;;28.61;44.83;99635.09;5070183;28;20209;-77
2022/08/27 18:01:19;;;;;;;22.42;5.05;;;;;;;28.77;45.48;99679.38;5074009;28;20213;-79
2022/08/27 18:03:46;;;;;;;33.40;9.23;;;;;;;28.83;45.81;99689.63;5076544;28;20202;-79
2022/08/27 18:06:15;;;;;;;24.40;7.65;;;;;;;28.79;46.30;99695.31;5070629;28;20205;-85
2022/08/27 18:08:41;;;;;;;29.08;6.93;;;;;;;28.63;46.55;99692.75;5080466;28;20617;-83
2022/08/27 18:11:10;;;;;;;28.15;5.90;;;;;;;28.50;46.80;99675.81;5052013;28;20206;-84
2022/08/27 18:13:37;;;;;;;20.70;5.75;;;;;;;28.50;46.58;99700.66;5070846;28;20251;-80
2022/08/27 18:16:05;;;;;;;20.90;5.68;;;;;;;28.54;46.29;99698.66;5034448;28;20213;-81
2022/08/27 18:18:32;;;;;;;28.98;5.65;;;;;;;28.51;46.58;99698.84;5080725;28;20206;-81
2022/08/27 18:20:59;;;;;;;18.35;5.30;;;;;;;28.00;46.87;99618.56;5038957;28;20198;-79
2022/08/27 18:23:27;;;;;;;16.73;5.68;;;;;;;28.35;47.39;99691.00;5069948;28;20218;-84
2022/08/27 18:25:56;;;;;;;26.73;6.43;;;;;;;28.33;47.47;99695.56;5034304;28;20198;-80
2022/08/27 18:28:23;;;;;;;23.05;6.22;;;;;;;28.33;47.31;99695.56;5073535;28;20251;-77
2022/08/27 18:30:50;;;;;;;20.98;5.60;;;;;;;28.36;47.10;99700.69;5064188;28;20206;-76
2022/08/27 18:33:17;;;;;;;21.33;5.10;;;;;;;28.37;46.99;99704.22;5071429;28;20203;-81
2022/08/27 18:35:44;;;;;;;18.30;5.15;;;;;;;28.33;47.03;99706.22;5071572;28;20203;-78
2022/08/27 18:38:11;;;;;;;21.10;5.15;;;;;;;28.24;46.80;99690.84;5070076;28;20202;-80
2022/08/27 18:40:43;;;;;;;16.75;5.40;;;;;;;28.21;46.39;99684.84;5035341;28;20683;-79
2022/08/27 18:43:10;;;;;;;29.95;5.05;;;;;;;28.28;46.43;99702.16;5027688;28;20207;-81
2022/08/27 18:45:38;;;;;;;24.38;5.72;;;;;;;28.24;46.55;99697.97;5065826;28;20221;-78
2022/08/27 18:48:12;;;;;;;22.13;5.13;;;;;;;28.25;47.25;99707.69;5070453;28;20210;-79
2022/08/27 18:50:43;;;;;;;22.02;5.68;;;;;;;28.02;47.87;99672.63;5073978;28;20233;-79
2022/08/27 18:53:10;;;;;;;16.35;5.18;;;;;;;28.04;48.18;99685.84;5073853;28;20206;-79
2022/08/27 18:55:39;;;;;;;17.00;5.03;;;;;;;28.22;47.89;99708.72;5075038;28;20202;-82
2022/08/27 18:58:06;;;;;;;23.17;5.78;;;;;;;28.29;47.97;99712.72;5066007;28;20221;-83
2022/08/27 19:00:32;;;;;;;17.77;5.47;;;;;;;28.14;48.41;99699.50;5078146;28;20209;-80
2022/08/27 19:03:00;;;;;;;25.45;5.78;;;;;;;28.13;47.92;99708.47;5040425;28;20204;-82
2022/08/27 19:05:28;;;;;;;24.05;6.38;;;;;;;28.13;47.53;99703.13;5077244;28;20209;-81
2022/08/27 19:07:57;;;;;;;19.63;4.63;;;;;;;28.17;47.82;99725.97;5079753;28;20206;-82
2022/08/27 19:10:25;;;;;;;162.18;95.45;;;;;;;28.21;49.86;99732.84;5073871;28;20226;-81
2022/08/27 19:12:53;;;;;;;90.72;47.50;;;;;;;28.19;49.08;99724.06;5077596;28;20202;-84
2022/08/27 19:15:20;;;;;;;35.03;14.00;;;;;;;28.15;49.15;99722.53;5073761;28;20213;-79
2022/08/27 19:17:53;;;;;;;20.80;6.10;;;;;;;28.15;48.51;99731.41;5075631;28;20601;-84
2022/08/27 19:20:20;;;;;;;30.70;6.97;;;;;;;28.00;48.06;99709.19;5073388;28;20213;-84
2022/08/27 19:22:48;;;;;;;27.35;6.45;;;;;;;28.12;47.92;99738.72;5073755;28;20210;-81
2022/08/27 19:25:16;;;;;;;20.58;5.75;;;;;;;28.04;48.09;99737.38;5073344;28;20206;-85
2022/08/27 19:27:44;;;;;;;21.40;6.15;;;;;;;28.15;58.96;99743.88;5072736;28;20226;-81
2022/08/27 19:30:15;;;;;;;23.23;6.45;;;;;;;28.11;63.64;99737.88;5080900;28;20233;-83
2022/08/27 19:32:41;;;;;;;19.83;5.82;;;;;;;28.00;71.18;99740.34;5054295;28;20206;-82
2022/08/27 19:35:09;;;;;;;21.33;6.25;;;;;;;27.75;80.20;99725.00;5054627;28;20215;-84
2022/08/27 19:37:41;;;;;;;20.90;6.22;;;;;;;27.73;84.36;99750.88;5072759;28;20203;-83
2022/08/27 19:40:09;;;;;;;22.90;6.15;;;;;;;27.66;90.45;99741.53;5073075;28;20709;-82
2022/08/27 19:42:36;;;;;;;19.95;5.75;;;;;;;27.55;89.88;99738.66;5041784;28;20204;-82
2022/08/27 19:45:03;;;;;;;23.55;5.70;;;;;;;27.47;88.66;99736.44;5071820;28;20230;-83
2022/08/27 19:47:31;;;;;;;22.08;6.22;;;;;;;27.34;85.92;99735.44;5072183;28;20206;-79
2022/08/27 19:49:58;;;;;;;29.98;6.05;;;;;;;27.24;82.88;99738.72;5072901;28;20605;-81
2022/08/27 19:52:25;;;;;;;28.38;6.55;;;;;;;27.25;80.75;99746.66;5072720;28;20203;-81
2022/08/27 19:54:52;;;;;;;26.70;6.00;;;;;;;27.26;77.77;99745.66;5074334;28;20203;-79
2022/08/27 19:57:19;;;;;;;18.08;5.30;;;;;;;27.27;75.37;99743.88;5033211;28;20211;-82
2022/08/27 19:59:46;;;;;;;23.10;5.20;;;;;;;27.28;75.09;99740.28;5033060;28;20198;-83
2022/08/27 20:02:12;;;;;;;17.48;5.90;;;;;;;27.29;70.40;99742.00;5074194;28;20213;-79
2022/08/27 20:04:41;;;;;;;309.60;207.00;;;;;;;27.30;69.18;99739.22;5073282;28;20210;-82
2022/08/27 20:07:08;;;;;;;215.95;125.28;;;;;;;27.27;65.48;99746.53;5086601;28;20203;-79
2022/08/27 20:09:35;;;;;;;56.17;31.27;;;;;;;27.36;79.89;99746.00;5072899;28;20588;-80
2022/08/27 20:12:02;;;;;;;27.50;13.88;;;;;;;27.33;75.46;99744.38;5085095;28;20202;-80
2022/08/27 20:14:29;;;;;;;32.40;14.00;;;;;;;27.34;72.58;99750.56;5058860;28;20599;-80
2022/08/27 20:16:55;;;;;;;25.70;5.97;;;;;;;27.39;60.01;99749.34;5062947;28;20195;-81
2022/08/27 20:19:23;;;;;;;22.48;6.28;;;;;;;27.33;67.00;99751.50;5062968;28;20206;-80
2022/08/27 20:21:51;;;;;;;19.17;5.82;;;;;;;27.37;67.36;99756.56;5064112;28;20194;-80
2022/08/27 20:24:19;;;;;;;23.35;5.53;;;;;;;27.41;74.05;99758.09;5063472;28;20208;-79
2022/08/27 20:26:46;;;;;;;15.48;5.68;;;;;;;27.35;69.94;99760.25;5068283;28;20227;-81
2022/08/27 20:29:13;;;;;;;30.85;6.45;;;;;;;27.25;71.44;99757.28;5070752;28;20218;-81
2022/08/27 20:31:40;;;;;;;19.15;6.45;;;;;;;27.04;73.28;99758.53;5067597;28;20685;-79
2022/08/27 20:34:07;;;;;;;18.52;6.13;;;;;;;26.90;74.42;99745.13;5065862;28;20265;-81
2022/08/27 20:36:34;;;;;;;25.77;5.55;;;;;;;26.78;73.96;99738.72;5069468;28;20689;-77
2022/08/27 20:39:04;;;;;;;20.50;5.20;;;;;;;26.92;69.66;99757.44;5061450;28;20199;-82
2022/08/27 20:41:31;;;;;;;24.77;5.65;;;;;;;26.96;67.64;99755.47;5051573;28;20200;-82
2022/08/27 20:43:58;;;;;;;19.35;5.95;;;;;;;27.01;66.92;99759.56;5052458;28;20207;-82
2022/08/27 20:46:27;;;;;;;27.55;5.55;;;;;;;27.08;64.42;99755.59;5070293;28;20202;-82
2022/08/27 20:48:55;;;;;;;24.85;5.45;;;;;;;27.09;64.39;99759.97;5062955;28;20211;-81
2022/08/27 20:51:22;;;;;;;18.88;5.13;;;;;;;27.09;59.18;99757.31;5063290;28;20703;-81
2022/08/27 20:53:49;;;;;;;24.30;5.18;;;;;;;27.07;60.80;99748.56;5067895;28;20555;-80
2022/08/27 20:56:17;;;;;;;24.48;6.30;;;;;;;27.20;62.95;99761.16;5020682;28;20219;-83
2022/08/27 21:01:28;;;;;;;20.58;5.07;;;;;;;27.17;61.16;99766.66;5070233;28;20697;-80
2022/08/27 21:03:55;;;;;;;16.42;4.85;;;;;;;27.05;62.74;99738.94;5054675;28;20235;-81
2022/08/27 21:06:22;;;;;;;18.95;4.55;;;;;;;27.16;60.12;99763.13;5051345;28;20207;-77
2022/08/27 21:08:49;;;;;;;18.08;5.10;;;;;;;27.21;60.50;99757.56;5054573;28;20203;-80
2022/08/27 21:11:17;;;;;;;18.75;5.30;;;;;;;27.16;59.08;99759.63;5050484;28;20721;-81
2022/08/27 21:13:45;;;;;;;22.40;5.32;;;;;;;27.18;58.95;99755.06;5065830;28;20199;-78
2022/08/27 21:16:11;;;;;;;14.68;5.03;;;;;;;27.20;61.29;99761.16;5057401;28;20206;-82
2022/08/27 21:18:39;;;;;;;28.20;4.93;;;;;;;27.18;60.45;99766.59;5075129;28;20207;-80
2022/08/27 21:21:08;;;;;;;24.27;5.20;;;;;;;27.14;60.91;99764.19;5061589;28;20261;-80
2022/08/27 21:23:37;;;;;;;21.75;4.90;;;;;;;27.08;59.86;99762.72;5051361;28;20206;-81
2022/08/27 21:26:08;;;;;;;26.02;5.72;;;;;;;27.11;58.42;99766.06;5052888;28;20208;-82
2022/08/27 21:28:37;;;;;;;18.85;5.57;;;;;;;27.04;61.37;99769.19;5066738;28;20205;-78
2022/08/27 21:31:05;;;;;;;26.08;4.70;;;;;;;26.77;57.31;99723.69;5082126;28;20222;-81
2022/08/27 21:33:33;;;;;;;18.10;4.97;;;;;;;26.99;58.44;99766.78;5087161;28;20637;-80
2022/08/27 21:36:00;;;;;;;20.85;4.70;;;;;;;26.96;56.84;99766.97;5084475;28;20611;-81
2022/08/27 21:38:27;;;;;;;25.17;5.22;;;;;;;26.84;57.76;99761.47;5075776;28;20213;-81
2022/08/27 21:40:54;;;;;;;20.10;5.47;;;;;;;26.94;57.01;99768.84;5071240;28;20206;-76
2022/08/27 21:43:21;;;;;;;21.08;4.90;;;;;;;26.84;57.68;99761.47;5089293;28;20190;-81
2022/08/27 21:45:53;;;;;;;16.25;4.80;;;;;;;26.75;57.42;99746.00;5091149;28;20700;-81
2022/08/27 21:48:20;;;;;;;27.70;5.18;;;;;;;26.79;59.66;99767.00;5079078;28;20206;-79
2022/08/27 21:50:46;;;;;;;22.48;5.68;;;;;;;26.81;58.75;99764.28;5070756;28;20656;-80
2022/08/27 21:53:14;;;;;;;12.25;5.25;;;;;;;26.79;59.57;99764.34;5070868;28;20708;-81
2022/08/27 21:55:40;;;;;;;26.70;5.28;;;;;;;26.68;59.97;99765.91;5044595;28;20202;-81
2022/08/27 21:58:07;;;;;;;17.70;4.53;;;;;;;26.66;62.11;99763.31;5085371;28;20206;-80
2022/08/27 22:00:42;;;;;;;16.77;5.78;;;;;;;26.66;60.84;99758.00;5036571;28;20203;-79
2022/08/27 22:03:12;;;;;;;22.42;5.03;;;;;;;26.67;61.36;99758.88;5072088;28;20732;-79
2022/08/27 22:05:41;;;;;;;21.08;5.55;;;;;;;26.55;62.48;99739.13;5071193;28;20941;-81
2022/08/27 22:08:08;;;;;;;21.73;5.55;;;;;;;26.38;60.26;99720.59;5071293;28;20244;-81
2022/08/27 22:10:35;;;;;;;24.75;5.18;;;;;;;26.07;60.99;99674.44;5075284;28;20280;-81
2022/08/27 22:13:03;;;;;;;14.35;5.28;;;;;;;26.44;61.83;99753.03;5090843;28;20266;-78